createdAt,value
2018-07-27T00:00:32.136Z,0
2018-07-27T00:01:37.583Z,0
2018-07-27T00:02:42.780Z,0
2018-07-27T00:03:48.654Z,0
2018-07-27T00:04:53.799Z,0
2018-07-27T00:05:58.942Z,0
2018-07-27T00:07:04.389Z,0
2018-07-27T00:08:09.549Z,0
2018-07-27T00:09:14.987Z,0
2018-07-27T00:10:20.391Z,0
2018-07-27T00:11:25.558Z,0
2018-07-27T00:12:30.876Z,0
2018-07-27T00:13:36.035Z,0
2018-07-27T00:14:41.178Z,0
2018-07-27T00:15:46.467Z,0
2018-07-27T00:16:51.373Z,0
2018-07-27T00:17:56.239Z,0
2018-07-27T00:19:01.795Z,0
2018-07-27T00:20:06.680Z,0
2018-07-27T00:21:11.563Z,0
2018-07-27T00:22:17.284Z,0
2018-07-27T00:23:22.736Z,0
2018-07-27T00:24:28.008Z,0
2018-07-27T00:25:33.231Z,0
2018-07-27T00:26:38.436Z,0
2018-07-27T00:27:43.811Z,0
2018-07-27T00:28:48.491Z,0
2018-07-27T00:29:53.358Z,0
2018-07-27T00:30:59.045Z,0
2018-07-27T00:32:03.923Z,0
2018-07-27T00:33:09.468Z,0
2018-07-27T00:34:14.655Z,0
2018-07-27T00:35:19.825Z,0
2018-07-27T00:36:39.972Z,0
2018-07-27T00:37:45.212Z,0
2018-07-27T00:38:50.642Z,0
2018-07-27T00:39:55.797Z,0
2018-07-27T00:41:00.969Z,0
2018-07-27T00:42:05.845Z,0
2018-07-27T00:43:11.358Z,0
2018-07-27T00:44:16.222Z,0
2018-07-27T00:45:21.424Z,0
2018-07-27T00:46:26.936Z,0
2018-07-27T00:47:31.793Z,0
2018-07-27T00:48:37.106Z,0
2018-07-27T00:49:42.535Z,0
2018-07-27T00:50:47.686Z,0
2018-07-27T00:51:52.796Z,0
2018-07-27T00:52:57.731Z,0
2018-07-27T00:54:02.637Z,0
2018-07-27T00:55:08.089Z,0
2018-07-27T00:56:13.356Z,0
2018-07-27T00:57:18.570Z,0
2018-07-27T00:58:23.436Z,0
2018-07-27T00:59:28.041Z,0
2018-07-27T01:00:33.718Z,0
2018-07-27T01:01:38.874Z,0
2018-07-27T01:02:44.030Z,0
2018-07-27T01:03:49.576Z,0
2018-07-27T01:04:54.481Z,0
2018-07-27T01:05:59.940Z,0
2018-07-27T01:07:05.810Z,0
2018-07-27T01:08:10.777Z,0
2018-07-27T01:09:15.983Z,0
2018-07-27T01:10:21.660Z,0
2018-07-27T01:11:27.173Z,0
2018-07-27T01:12:32.998Z,0
2018-07-27T01:13:38.426Z,0
2018-07-27T01:14:43.353Z,0
2018-07-27T01:15:49.167Z,0
2018-07-27T01:16:53.749Z,0
2018-07-27T01:17:58.663Z,0
2018-07-27T01:19:04.347Z,0
2018-07-27T01:20:09.556Z,0
2018-07-27T01:21:15.001Z,0
2018-07-27T01:22:20.462Z,0
2018-07-27T01:23:25.633Z,0
2018-07-27T01:24:31.085Z,0
2018-07-27T01:25:36.269Z,0
2018-07-27T01:26:41.164Z,0
2018-07-27T01:27:46.588Z,0
2018-07-27T01:28:51.747Z,0
2018-07-27T01:29:57.233Z,0
2018-07-27T01:31:02.721Z,0
2018-07-27T01:32:07.650Z,0
2018-07-27T01:33:13.085Z,0
2018-07-27T01:34:19.035Z,0
2018-07-27T01:35:24.465Z,0
2018-07-27T01:36:30.284Z,0
2018-07-27T01:37:35.445Z,0
2018-07-27T01:38:40.322Z,0
2018-07-27T01:39:45.800Z,0
2018-07-27T01:40:50.728Z,0
2018-07-27T01:41:55.592Z,0
2018-07-27T01:43:01.293Z,0
2018-07-27T01:44:06.172Z,0
2018-07-27T01:45:11.342Z,0
2018-07-27T01:46:16.773Z,0
2018-07-27T01:47:22.203Z,0
2018-07-27T01:48:27.975Z,0
2018-07-27T01:49:33.417Z,0
2018-07-27T01:50:38.566Z,0
2018-07-27T01:51:44.124Z,0
2018-07-27T01:52:49.833Z,0
2018-07-27T01:53:55.050Z,0
2018-07-27T01:55:00.175Z,0
2018-07-27T01:56:05.067Z,0
2018-07-27T01:57:10.585Z,0
2018-07-27T01:58:16.265Z,0
2018-07-27T01:59:21.501Z,0
2018-07-27T02:00:41.666Z,0
2018-07-27T02:01:46.535Z,0
2018-07-27T02:02:52.216Z,0
2018-07-27T02:03:57.911Z,0
2018-07-27T02:05:02.773Z,0
2018-07-27T02:06:08.201Z,0
2018-07-27T02:07:13.387Z,0
2018-07-27T02:08:18.821Z,0
2018-07-27T02:09:24.267Z,0
2018-07-27T02:10:44.806Z,0
2018-07-27T02:11:49.685Z,0
2018-07-27T02:12:55.444Z,0
2018-07-27T02:14:00.691Z,0
2018-07-27T02:15:05.319Z,0
2018-07-27T02:16:10.738Z,0
2018-07-27T02:17:15.882Z,0
2018-07-27T02:18:20.553Z,0
2018-07-27T02:19:25.760Z,0
2018-07-27T02:20:30.941Z,0
2018-07-27T02:21:36.640Z,0
2018-07-27T02:22:41.920Z,0
2018-07-27T02:23:47.061Z,0
2018-07-27T02:24:52.278Z,0
2018-07-27T02:25:57.810Z,0
2018-07-27T02:27:02.956Z,0
2018-07-27T02:28:08.165Z,0
2018-07-27T02:29:13.491Z,0
2018-07-27T02:30:18.424Z,0
2018-07-27T02:31:23.540Z,0
2018-07-27T02:32:28.746Z,0
2018-07-27T02:33:34.731Z,0
2018-07-27T02:34:39.058Z,0
2018-07-27T02:35:44.296Z,0
2018-07-27T02:36:49.972Z,0
2018-07-27T02:37:54.847Z,0
2018-07-27T02:38:59.999Z,0
2018-07-27T02:40:05.981Z,0
2018-07-27T02:41:11.495Z,0
2018-07-27T02:42:17.053Z,0
2018-07-27T02:43:22.906Z,0
2018-07-27T02:44:28.157Z,0
2018-07-27T02:45:33.912Z,0
2018-07-27T02:46:38.785Z,0
2018-07-27T02:47:44.313Z,0
2018-07-27T02:48:50.045Z,0
2018-07-27T02:49:55.493Z,0
2018-07-27T02:51:00.993Z,0
2018-07-27T02:52:06.791Z,0
2018-07-27T02:53:12.234Z,0
2018-07-27T02:54:17.709Z,0
2018-07-27T02:55:23.020Z,0
2018-07-27T02:56:28.478Z,0
2018-07-27T02:57:34.072Z,0
2018-07-27T02:58:38.751Z,0
2018-07-27T02:59:44.182Z,0
2018-07-27T03:00:49.688Z,0
2018-07-27T03:01:54.571Z,0
2018-07-27T03:03:00.002Z,0
2018-07-27T03:04:05.502Z,0
2018-07-27T03:05:10.693Z,0
2018-07-27T03:06:15.564Z,0
2018-07-27T03:07:20.967Z,0
2018-07-27T03:08:25.626Z,0
2018-07-27T03:09:31.510Z,0
2018-07-27T03:10:36.406Z,0
2018-07-27T03:11:41.753Z,0
2018-07-27T03:12:46.872Z,0
2018-07-27T03:13:52.018Z,0
2018-07-27T03:14:56.917Z,0
2018-07-27T03:16:02.438Z,0
2018-07-27T03:17:07.726Z,0
2018-07-27T03:18:13.193Z,0
2018-07-27T03:19:18.913Z,0
2018-07-27T03:20:23.773Z,0
2018-07-27T03:21:29.054Z,0
2018-07-27T03:22:34.501Z,0
2018-07-27T03:23:39.924Z,0
2018-07-27T03:24:45.431Z,0
2018-07-27T03:25:50.862Z,0
2018-07-27T03:26:56.036Z,0
2018-07-27T03:28:01.197Z,0
2018-07-27T03:29:06.339Z,0
2018-07-27T03:30:11.612Z,0
2018-07-27T03:31:17.337Z,0
2018-07-27T03:32:22.784Z,0
2018-07-27T03:33:28.712Z,0
2018-07-27T03:34:34.175Z,0
2018-07-27T03:35:39.603Z,0
2018-07-27T03:36:45.370Z,0
2018-07-27T03:37:49.952Z,0
2018-07-27T03:38:54.816Z,0
2018-07-27T03:40:00.274Z,0
2018-07-27T03:41:05.487Z,0
2018-07-27T03:42:10.969Z,0
2018-07-27T03:43:16.903Z,0
2018-07-27T03:44:21.539Z,0
2018-07-27T03:45:41.701Z,0
2018-07-27T03:46:46.847Z,0
2018-07-27T03:47:52.017Z,0
2018-07-27T03:48:57.514Z,0
2018-07-27T03:50:02.674Z,0
2018-07-27T03:51:06.815Z,0
2018-07-27T03:52:12.363Z,0
2018-07-27T03:53:17.261Z,0
2018-07-27T03:54:22.468Z,0
2018-07-27T03:55:42.559Z,0
2018-07-27T03:56:47.736Z,0
2018-07-27T03:57:53.461Z,0
2018-07-27T03:58:58.342Z,0
2018-07-27T04:00:02.707Z,0
2018-07-27T04:01:07.351Z,0
2018-07-27T04:02:12.604Z,0
2018-07-27T04:03:17.579Z,0
2018-07-27T04:04:23.438Z,0
2018-07-27T04:05:28.384Z,0
2018-07-27T04:06:34.213Z,0
2018-07-27T04:07:39.359Z,0
2018-07-27T04:08:44.167Z,0
2018-07-27T04:09:49.590Z,0
2018-07-27T04:10:55.081Z,0
2018-07-27T04:12:00.511Z,0
2018-07-27T04:13:05.724Z,0
2018-07-27T04:14:10.629Z,0
2018-07-27T04:15:16.145Z,0
2018-07-27T04:16:20.995Z,0
2018-07-27T04:17:26.422Z,0
2018-07-27T04:18:32.035Z,6
2018-07-27T04:19:36.904Z,6
2018-07-27T04:20:41.843Z,6
2018-07-27T04:21:47.545Z,6
2018-07-27T04:22:52.694Z,6
2018-07-27T04:23:58.170Z,6
2018-07-27T04:25:03.524Z,6
2018-07-27T04:26:08.119Z,6
2018-07-27T04:27:13.648Z,6
2018-07-27T04:28:18.519Z,6
2018-07-27T04:29:23.981Z,6
2018-07-27T04:30:29.609Z,6
2018-07-27T04:31:35.268Z,6
2018-07-27T04:32:40.420Z,6
2018-07-27T04:33:45.964Z,6
2018-07-27T04:34:51.478Z,6
2018-07-27T04:35:56.345Z,6
2018-07-27T04:37:01.981Z,24
2018-07-27T04:38:06.923Z,24
2018-07-27T04:39:12.404Z,24
2018-07-27T04:40:18.083Z,24
2018-07-27T04:41:23.626Z,24
2018-07-27T04:42:29.910Z,24
2018-07-27T04:43:34.776Z,24
2018-07-27T04:44:40.197Z,24
2018-07-27T04:45:45.705Z,24
2018-07-27T04:46:50.571Z,24
2018-07-27T04:47:55.512Z,24
2018-07-27T04:49:00.584Z,24
2018-07-27T04:50:05.524Z,24
2018-07-27T04:51:10.470Z,24
2018-07-27T04:52:15.873Z,24
2018-07-27T04:53:20.808Z,24
2018-07-27T04:54:25.907Z,24
2018-07-27T04:55:31.053Z,24
2018-07-27T04:56:36.810Z,24
2018-07-27T04:57:43.138Z,24
2018-07-27T04:58:48.056Z,40
2018-07-27T04:59:52.922Z,40
2018-07-27T05:00:58.425Z,40
2018-07-27T05:02:03.581Z,40
2018-07-27T05:03:08.772Z,40
2018-07-27T05:04:14.641Z,40
2018-07-27T05:05:19.913Z,40
2018-07-27T05:07:45.624Z,40
2018-07-27T05:08:50.829Z,40
2018-07-27T05:09:56.151Z,40
2018-07-27T05:11:00.814Z,40
2018-07-27T05:12:06.031Z,40
2018-07-27T05:13:11.241Z,40
2018-07-27T05:14:16.401Z,40
2018-07-27T05:15:21.566Z,40
2018-07-27T05:16:26.933Z,40
2018-07-27T05:17:31.813Z,40
2018-07-27T05:18:37.592Z,40
2018-07-27T05:19:42.757Z,55
2018-07-27T05:20:48.285Z,55
2018-07-27T05:21:53.829Z,55
2018-07-27T05:22:58.972Z,31
2018-07-27T05:24:03.843Z,31
2018-07-27T05:25:09.603Z,31
2018-07-27T05:26:14.465Z,31
2018-07-27T05:27:19.783Z,31
2018-07-27T05:28:25.561Z,31
2018-07-27T05:29:31.056Z,31
2018-07-27T05:30:35.959Z,31
2018-07-27T05:31:41.386Z,31
2018-07-27T05:32:46.866Z,31
2018-07-27T05:33:52.272Z,31
2018-07-27T05:34:57.716Z,31
2018-07-27T05:36:02.695Z,31
2018-07-27T05:37:08.377Z,31
2018-07-27T05:38:14.140Z,31
2018-07-27T05:39:19.587Z,31
2018-07-27T05:40:24.763Z,31
2018-07-27T05:41:29.913Z,48
2018-07-27T05:42:35.352Z,48
2018-07-27T05:43:40.497Z,48
2018-07-27T05:44:45.671Z,48
2018-07-27T05:45:51.073Z,48
2018-07-27T05:46:57.004Z,48
2018-07-27T05:48:02.686Z,48
2018-07-27T05:49:07.414Z,48
2018-07-27T05:50:12.559Z,48
2018-07-27T05:51:17.467Z,48
2018-07-27T05:52:22.741Z,48
2018-07-27T05:53:28.173Z,48
2018-07-27T05:54:33.751Z,48
2018-07-27T05:55:39.242Z,48
2018-07-27T05:56:44.400Z,48
2018-07-27T05:57:49.601Z,48
2018-07-27T05:58:54.475Z,48
2018-07-27T05:59:59.086Z,48
2018-07-27T06:01:04.627Z,48
2018-07-27T06:02:12.115Z,48
2018-07-27T06:03:17.582Z,48
2018-07-27T06:04:23.073Z,48
2018-07-27T06:05:28.270Z,64
2018-07-27T06:06:33.685Z,64
2018-07-27T06:07:38.650Z,64
2018-07-27T06:08:43.864Z,64
2018-07-27T06:09:49.995Z,64
2018-07-27T06:10:55.213Z,64
2018-07-27T06:12:00.369Z,64
2018-07-27T06:13:05.608Z,64
2018-07-27T06:14:10.816Z,64
2018-07-27T06:15:16.251Z,64
2018-07-27T06:16:22.067Z,64
2018-07-27T06:17:27.417Z,64
2018-07-27T06:18:33.351Z,64
2018-07-27T06:19:37.951Z,64
2018-07-27T06:20:43.106Z,64
2018-07-27T06:21:48.690Z,64
2018-07-27T06:22:53.556Z,64
2018-07-27T06:23:59.610Z,64
2018-07-27T06:25:05.312Z,80
2018-07-27T06:26:09.910Z,80
2018-07-27T06:27:15.087Z,80
2018-07-27T06:28:20.861Z,80
2018-07-27T06:29:26.005Z,80
2018-07-27T06:30:31.662Z,80
2018-07-27T06:31:36.831Z,55
2018-07-27T06:32:42.031Z,55
2018-07-27T06:33:47.532Z,55
2018-07-27T06:34:53.074Z,55
2018-07-27T06:35:57.937Z,55
2018-07-27T06:37:02.582Z,55
2018-07-27T06:38:07.765Z,55
2018-07-27T06:39:13.439Z,55
2018-07-27T06:40:19.143Z,55
2018-07-27T06:41:24.728Z,55
2018-07-27T06:42:30.323Z,55
2018-07-27T06:43:35.300Z,55
2018-07-27T06:44:40.712Z,55
2018-07-27T06:45:45.824Z,55
2018-07-27T06:46:50.490Z,55
2018-07-27T06:47:55.659Z,72
2018-07-27T06:49:01.121Z,72
2018-07-27T06:50:05.466Z,72
2018-07-27T06:51:10.331Z,72
2018-07-27T06:52:15.884Z,72
2018-07-27T06:53:21.312Z,72
2018-07-27T06:54:26.727Z,72
2018-07-27T06:55:32.181Z,72
2018-07-27T06:56:37.330Z,72
2018-07-27T06:57:43.019Z,72
2018-07-27T06:58:48.213Z,72
2018-07-27T06:59:53.640Z,72
2018-07-27T07:00:59.331Z,72
2018-07-27T07:02:03.920Z,72
2018-07-27T07:03:08.984Z,72
2018-07-27T07:04:14.378Z,72
2018-07-27T07:05:19.598Z,72
2018-07-27T07:06:24.994Z,72
2018-07-27T07:07:30.564Z,72
2018-07-27T07:08:35.754Z,72
2018-07-27T07:09:41.147Z,72
2018-07-27T07:10:46.779Z,72
2018-07-27T07:11:51.872Z,72
2018-07-27T07:12:57.651Z,72
2018-07-27T07:14:02.298Z,72
2018-07-27T07:15:07.737Z,72
2018-07-27T07:16:12.843Z,72
2018-07-27T07:17:17.986Z,72
2018-07-27T07:18:22.848Z,72
2018-07-27T07:19:28.531Z,72
2018-07-27T07:20:33.963Z,72
2018-07-27T07:21:38.898Z,72
2018-07-27T07:22:44.242Z,72
2018-07-27T07:23:49.496Z,72
2018-07-27T07:24:54.984Z,72
2018-07-27T07:26:01.394Z,72
2018-07-27T07:27:08.291Z,72
2018-07-27T07:28:13.815Z,72
2018-07-27T07:29:18.761Z,72
2018-07-27T07:30:24.309Z,72
2018-07-27T07:31:44.656Z,72
2018-07-27T07:32:49.271Z,72
2018-07-27T07:33:54.774Z,72
2018-07-27T07:34:59.411Z,72
2018-07-27T07:36:04.936Z,72
2018-07-27T07:37:10.331Z,72
2018-07-27T07:38:14.995Z,72
2018-07-27T07:39:20.150Z,72
2018-07-27T07:40:25.447Z,72
2018-07-27T07:41:30.383Z,72
2018-07-27T07:42:35.929Z,72
2018-07-27T07:43:41.402Z,72
2018-07-27T07:44:46.956Z,72
2018-07-27T07:45:52.859Z,72
2018-07-27T07:46:58.042Z,72
2018-07-27T07:48:03.002Z,72
2018-07-27T07:49:08.480Z,72
2018-07-27T07:50:13.367Z,72
2018-07-27T07:51:18.242Z,72
2018-07-27T07:52:23.645Z,72
2018-07-27T07:53:28.852Z,72
2018-07-27T07:54:34.584Z,72
2018-07-27T07:55:39.454Z,72
2018-07-27T07:56:44.612Z,88
2018-07-27T07:57:50.107Z,88
2018-07-27T07:58:54.734Z,88
2018-07-27T08:00:00.145Z,88
2018-07-27T08:01:05.520Z,88
2018-07-27T08:02:11.035Z,88
2018-07-27T08:03:16.271Z,88
2018-07-27T08:04:22.138Z,88
2018-07-27T08:05:28.252Z,88
2018-07-27T08:06:34.234Z,88
2018-07-27T08:07:39.747Z,88
2018-07-27T08:08:45.019Z,88
2018-07-27T08:09:50.615Z,88
2018-07-27T08:10:56.047Z,88
2018-07-27T08:12:01.211Z,88
2018-07-27T08:13:06.322Z,88
2018-07-27T08:14:11.216Z,88
2018-07-27T08:15:16.774Z,88
2018-07-27T08:16:21.931Z,88
2018-07-27T08:17:26.879Z,88
2018-07-27T08:18:32.275Z,88
2018-07-27T08:19:37.492Z,62
2018-07-27T08:20:42.838Z,62
2018-07-27T08:21:48.503Z,62
2018-07-27T08:22:53.140Z,62
2018-07-27T08:23:58.592Z,62
2018-07-27T08:25:04.395Z,62
2018-07-27T08:26:09.591Z,62
2018-07-27T08:27:14.173Z,62
2018-07-27T08:28:19.908Z,79
2018-07-27T08:29:24.497Z,79
2018-07-27T08:30:30.090Z,79
2018-07-27T08:31:35.251Z,79
2018-07-27T08:32:39.847Z,79
2018-07-27T08:33:44.684Z,79
2018-07-27T08:34:49.589Z,79
2018-07-27T08:35:55.081Z,79
2018-07-27T08:37:00.185Z,79
2018-07-27T08:38:05.408Z,79
2018-07-27T08:39:10.005Z,79
2018-07-27T08:40:15.418Z,79
2018-07-27T08:41:20.876Z,95
2018-07-27T08:42:26.071Z,95
2018-07-27T08:43:31.281Z,95
2018-07-27T08:44:36.714Z,95
2018-07-27T08:45:42.223Z,95
2018-07-27T08:46:47.377Z,95
2018-07-27T08:47:52.233Z,95
2018-07-27T08:48:57.636Z,95
2018-07-27T08:50:02.272Z,95
2018-07-27T08:51:06.617Z,95
2018-07-27T08:52:11.064Z,95
2018-07-27T08:53:16.432Z,95
2018-07-27T08:54:21.627Z,95
2018-07-27T08:55:41.743Z,95
2018-07-27T08:56:46.898Z,95
2018-07-27T08:57:52.453Z,95
2018-07-27T08:58:57.047Z,95
2018-07-27T09:00:02.296Z,95
2018-07-27T09:01:06.843Z,95
2018-07-27T09:02:12.303Z,95
2018-07-27T09:03:16.948Z,95
2018-07-27T09:04:22.075Z,95
2018-07-27T09:05:27.314Z,86
2018-07-27T09:06:32.918Z,112
2018-07-27T09:07:37.505Z,86
2018-07-27T09:08:42.466Z,86
2018-07-27T09:09:48.035Z,86
2018-07-27T09:10:52.901Z,86
2018-07-27T09:11:58.139Z,86
2018-07-27T09:13:02.976Z,86
2018-07-27T09:14:07.556Z,86
2018-07-27T09:15:12.986Z,86
2018-07-27T09:16:18.516Z,86
2018-07-27T09:17:23.916Z,86
2018-07-27T09:18:28.624Z,86
2018-07-27T09:19:33.906Z,86
2018-07-27T09:20:39.076Z,86
2018-07-27T09:21:44.252Z,86
2018-07-27T09:22:49.126Z,86
2018-07-27T09:23:54.010Z,86
2018-07-27T09:25:00.799Z,86
2018-07-27T09:26:05.688Z,103
2018-07-27T09:27:10.840Z,86
2018-07-27T09:28:16.554Z,86
2018-07-27T09:29:21.810Z,86
2018-07-27T09:30:41.572Z,86
2018-07-27T09:31:47.341Z,86
2018-07-27T09:32:51.966Z,86
2018-07-27T09:33:56.850Z,103
2018-07-27T09:35:02.204Z,103
2018-07-27T09:36:07.358Z,103
2018-07-27T09:37:12.620Z,103
2018-07-27T09:38:17.912Z,103
2018-07-27T09:39:23.352Z,103
2018-07-27T09:40:29.183Z,103
2018-07-27T09:41:34.311Z,103
2018-07-27T09:42:39.993Z,86
2018-07-27T09:43:45.154Z,103
2018-07-27T09:44:49.467Z,103
2018-07-27T09:45:55.002Z,86
2018-07-27T09:46:59.900Z,103
2018-07-27T09:48:04.202Z,103
2018-07-27T09:49:09.692Z,103
2018-07-27T09:50:14.274Z,86
2018-07-27T09:51:18.845Z,103
2018-07-27T09:52:24.473Z,103
2018-07-27T09:53:29.624Z,103
2018-07-27T09:54:35.047Z,103
2018-07-27T09:55:39.964Z,103
2018-07-27T09:56:44.864Z,103
2018-07-27T09:57:50.618Z,103
2018-07-27T09:58:56.084Z,103
2018-07-27T10:00:01.514Z,103
2018-07-27T10:01:06.452Z,103
2018-07-27T10:02:11.705Z,103
2018-07-27T10:03:17.131Z,103
2018-07-27T10:04:22.968Z,103
2018-07-27T10:05:27.812Z,103
2018-07-27T10:06:33.201Z,103
2018-07-27T10:07:38.146Z,103
2018-07-27T10:08:43.399Z,103
2018-07-27T10:09:48.493Z,103
2018-07-27T10:10:53.884Z,103
2018-07-27T10:11:58.812Z,86
2018-07-27T10:13:04.307Z,103
2018-07-27T10:14:08.904Z,103
2018-07-27T10:15:14.160Z,103
2018-07-27T10:16:19.625Z,103
2018-07-27T10:17:24.487Z,103
2018-07-27T10:18:29.815Z,103
2018-07-27T10:19:35.149Z,103
2018-07-27T10:20:40.305Z,86
2018-07-27T10:21:45.980Z,103
2018-07-27T10:22:51.178Z,103
2018-07-27T10:23:56.603Z,103
2018-07-27T10:25:02.246Z,103
2018-07-27T10:26:07.121Z,103
2018-07-27T10:27:12.592Z,103
2018-07-27T10:28:17.761Z,103
2018-07-27T10:29:23.205Z,103
2018-07-27T10:30:28.955Z,103
2018-07-27T10:31:34.422Z,103
2018-07-27T10:32:39.297Z,103
2018-07-27T10:33:44.929Z,103
2018-07-27T10:34:49.878Z,103
2018-07-27T10:35:55.042Z,103
2018-07-27T10:37:00.721Z,103
2018-07-27T10:38:05.648Z,103
2018-07-27T10:39:11.121Z,103
2018-07-27T10:40:16.798Z,86
2018-07-27T10:41:22.255Z,103
2018-07-27T10:42:27.522Z,103
2018-07-27T10:43:32.996Z,103
2018-07-27T10:44:38.389Z,103
2018-07-27T10:45:43.986Z,103
2018-07-27T10:46:48.860Z,103
2018-07-27T10:47:54.298Z,103
2018-07-27T10:48:59.688Z,103
2018-07-27T10:50:04.617Z,103
2018-07-27T10:51:10.150Z,103
2018-07-27T10:52:15.733Z,103
2018-07-27T10:53:21.168Z,103
2018-07-27T10:54:41.640Z,103
2018-07-27T10:55:46.228Z,103
2018-07-27T10:56:51.151Z,103
2018-07-27T10:57:56.553Z,103
2018-07-27T10:59:01.750Z,103
2018-07-27T11:00:06.645Z,103
2018-07-27T11:01:12.376Z,103
2018-07-27T11:02:17.894Z,103
2018-07-27T11:03:23.161Z,103
2018-07-27T11:04:28.758Z,103
2018-07-27T11:05:33.964Z,103
2018-07-27T11:06:39.451Z,86
2018-07-27T11:07:44.602Z,86
2018-07-27T11:08:50.330Z,103
2018-07-27T11:09:56.519Z,103
2018-07-27T11:11:02.018Z,103
2018-07-27T11:12:07.568Z,103
2018-07-27T11:13:13.397Z,103
2018-07-27T11:14:18.892Z,103
2018-07-27T11:15:24.117Z,103
2018-07-27T11:16:44.165Z,103
2018-07-27T11:17:49.877Z,103
2018-07-27T11:18:55.159Z,86
2018-07-27T11:20:00.363Z,86
2018-07-27T11:21:05.815Z,86
2018-07-27T11:22:11.094Z,86
2018-07-27T11:23:16.237Z,86
2018-07-27T11:24:20.874Z,86
2018-07-27T11:25:26.804Z,86
2018-07-27T11:26:32.324Z,86
2018-07-27T11:27:38.014Z,86
2018-07-27T11:28:43.444Z,86
2018-07-27T11:29:48.903Z,86
2018-07-27T11:30:54.606Z,86
2018-07-27T11:32:00.107Z,86
2018-07-27T11:33:05.280Z,86
2018-07-27T11:34:10.508Z,86
2018-07-27T11:35:16.012Z,86
2018-07-27T11:36:21.169Z,86
2018-07-27T11:37:41.372Z,86
2018-07-27T11:38:46.566Z,86
2018-07-27T11:39:51.670Z,86
2018-07-27T11:40:56.534Z,86
2018-07-27T11:42:01.398Z,86
2018-07-27T11:43:06.987Z,86
2018-07-27T11:44:12.251Z,86
2018-07-27T11:45:17.128Z,86
2018-07-27T11:46:22.526Z,86
2018-07-27T11:47:27.382Z,86
2018-07-27T11:48:32.590Z,86
2018-07-27T11:49:38.054Z,86
2018-07-27T11:50:43.205Z,86
2018-07-27T11:51:49.087Z,86
2018-07-27T11:52:53.709Z,112
2018-07-27T11:53:58.567Z,86
2018-07-27T11:55:04.066Z,86
2018-07-27T11:56:09.536Z,112
2018-07-27T11:57:14.684Z,112
2018-07-27T11:58:20.441Z,112
2018-07-27T11:59:25.511Z,95
2018-07-27T12:00:30.752Z,112
2018-07-27T12:01:35.967Z,112
2018-07-27T12:02:41.217Z,112
2018-07-27T12:03:46.993Z,112
2018-07-27T12:04:52.456Z,112
2018-07-27T12:05:57.994Z,443
2018-07-27T12:07:03.290Z,428
2018-07-27T12:08:08.707Z,428
2018-07-27T12:09:13.069Z,443
2018-07-27T12:10:18.798Z,443
2018-07-27T12:11:23.615Z,428
2018-07-27T12:12:29.364Z,443
2018-07-27T12:13:34.650Z,428
2018-07-27T12:14:40.762Z,428
2018-07-27T12:15:46.343Z,428
2018-07-27T12:16:51.238Z,428
2018-07-27T12:17:55.943Z,428
2018-07-27T12:19:01.693Z,443
2018-07-27T12:20:06.566Z,413
2018-07-27T12:21:12.255Z,443
2018-07-27T12:22:17.946Z,413
2018-07-27T12:23:23.675Z,428
2018-07-27T12:24:29.672Z,428
2018-07-27T12:25:35.240Z,428
2018-07-27T12:26:40.682Z,413
2018-07-27T12:27:46.532Z,428
2018-07-27T12:28:51.965Z,413
2018-07-27T12:29:57.442Z,428
2018-07-27T12:31:02.747Z,428
2018-07-27T12:32:07.625Z,428
2018-07-27T12:33:12.862Z,428
2018-07-27T12:34:18.655Z,428
2018-07-27T12:35:24.113Z,428
2018-07-27T12:36:29.844Z,428
2018-07-27T12:37:35.017Z,413
2018-07-27T12:38:40.446Z,428
2018-07-27T12:39:46.124Z,413
2018-07-27T12:40:51.490Z,413
2018-07-27T12:41:56.921Z,413
2018-07-27T12:43:02.382Z,413
2018-07-27T12:44:07.199Z,413
2018-07-27T12:45:12.357Z,413
2018-07-27T12:46:17.623Z,413
2018-07-27T12:47:23.108Z,413
2018-07-27T12:48:28.890Z,413
2018-07-27T12:49:34.521Z,413
2018-07-27T12:50:39.431Z,398
2018-07-27T12:51:44.541Z,398
2018-07-27T12:52:49.731Z,413
2018-07-27T12:53:54.659Z,413
2018-07-27T12:55:00.591Z,413
2018-07-27T12:56:05.829Z,413
2018-07-27T12:57:11.239Z,413
2018-07-27T12:58:16.684Z,413
2018-07-27T12:59:22.085Z,418
2018-07-27T13:00:27.928Z,79
2018-07-27T13:01:32.806Z,79
2018-07-27T13:02:38.260Z,79
2018-07-27T13:03:43.398Z,79
2018-07-27T13:04:48.849Z,79
2018-07-27T13:05:54.280Z,79
2018-07-27T13:06:59.401Z,79
2018-07-27T13:08:04.842Z,79
2018-07-27T13:09:09.178Z,79
2018-07-27T13:10:14.879Z,79
2018-07-27T13:11:20.511Z,79
2018-07-27T13:12:41.085Z,79
2018-07-27T13:13:46.236Z,79
2018-07-27T13:14:51.304Z,79
2018-07-27T13:15:56.769Z,79
2018-07-27T13:17:01.697Z,79
2018-07-27T13:18:06.281Z,62
2018-07-27T13:19:11.971Z,62
2018-07-27T13:20:17.401Z,62
2018-07-27T13:21:22.867Z,62
2018-07-27T13:22:29.550Z,62
2018-07-27T13:23:35.927Z,62
2018-07-27T13:27:27.706Z,79
2018-07-27T13:28:32.581Z,79
2018-07-27T13:29:37.730Z,79
2018-07-27T13:30:42.724Z,79
2018-07-27T13:32:51.683Z,79
2018-07-27T13:33:56.922Z,79
2018-07-27T13:35:02.075Z,95
2018-07-27T13:36:06.089Z,95
2018-07-27T13:37:11.944Z,95
2018-07-27T13:38:17.346Z,95
2018-07-27T13:39:22.252Z,95
2018-07-27T13:40:28.130Z,95
2018-07-27T13:41:33.348Z,95
2018-07-27T13:42:38.471Z,95
2018-07-27T13:43:43.143Z,95
2018-07-27T13:44:48.700Z,112
2018-07-27T13:45:54.095Z,112
2018-07-27T13:46:59.521Z,72
2018-07-27T13:48:04.129Z,72
2018-07-27T13:49:09.412Z,55
2018-07-27T13:50:14.607Z,55
2018-07-27T13:51:19.818Z,95
2018-07-27T13:52:25.033Z,86
2018-07-27T13:53:30.466Z,86
2018-07-27T13:54:35.777Z,86
2018-07-27T13:55:40.638Z,86
2018-07-27T13:56:46.134Z,86
2018-07-27T13:57:51.715Z,86
2018-07-27T13:58:56.879Z,86
2018-07-27T14:00:01.828Z,86
2018-07-27T14:01:06.949Z,86
2018-07-27T14:02:11.538Z,86
2018-07-27T14:03:16.693Z,86
2018-07-27T14:04:22.130Z,86
2018-07-27T14:05:27.562Z,86
2018-07-27T14:06:33.273Z,112
2018-07-27T14:07:38.927Z,86
2018-07-27T14:08:43.662Z,112
2018-07-27T14:09:49.536Z,95
2018-07-27T14:10:54.963Z,79
2018-07-27T14:12:00.180Z,72
2018-07-27T14:13:05.822Z,62
2018-07-27T14:14:11.308Z,55
2018-07-27T14:15:16.516Z,55
2018-07-27T14:16:21.435Z,55
2018-07-27T14:17:26.883Z,40
2018-07-27T14:18:32.435Z,40
2018-07-27T14:19:37.662Z,55
2018-07-27T14:20:43.090Z,55
2018-07-27T14:21:48.777Z,48
2018-07-27T14:22:53.953Z,31
2018-07-27T14:23:59.101Z,55
2018-07-27T14:25:04.281Z,95
2018-07-27T14:26:09.200Z,86
2018-07-27T14:27:14.338Z,86
2018-07-27T14:28:19.730Z,86
2018-07-27T14:29:24.887Z,86
2018-07-27T14:30:29.994Z,86
2018-07-27T14:31:34.622Z,86
2018-07-27T14:32:39.479Z,86
2018-07-27T14:33:44.928Z,86
2018-07-27T14:34:50.372Z,103
2018-07-27T14:35:55.807Z,103
2018-07-27T14:37:01.253Z,103
2018-07-27T14:38:06.341Z,103
2018-07-27T14:39:11.776Z,103
2018-07-27T14:40:17.455Z,103
2018-07-27T14:41:22.614Z,103
2018-07-27T14:42:28.072Z,119
2018-07-27T14:43:32.977Z,119
2018-07-27T14:44:38.482Z,103
2018-07-27T14:45:44.040Z,103
2018-07-27T14:46:48.901Z,103
2018-07-27T14:47:53.578Z,103
2018-07-27T14:48:59.597Z,103
2018-07-27T14:50:04.764Z,103
2018-07-27T14:51:09.967Z,103
2018-07-27T14:52:15.196Z,103
2018-07-27T14:53:21.046Z,103
2018-07-27T14:54:26.473Z,103
2018-07-27T14:55:31.080Z,103
2018-07-27T14:56:36.430Z,103
2018-07-27T14:57:41.754Z,103
2018-07-27T14:58:47.489Z,103
2018-07-27T14:59:53.019Z,103
2018-07-27T15:00:58.746Z,103
2018-07-27T15:02:03.640Z,103
2018-07-27T15:03:08.591Z,103
2018-07-27T15:04:14.358Z,103
2018-07-27T15:05:19.243Z,103
2018-07-27T15:06:24.450Z,103
2018-07-27T15:07:44.505Z,103
2018-07-27T15:08:49.951Z,119
2018-07-27T15:09:55.097Z,119
2018-07-27T15:11:00.748Z,119
2018-07-27T15:12:05.353Z,119
2018-07-27T15:13:10.905Z,119
2018-07-27T15:14:16.044Z,119
2018-07-27T15:15:21.100Z,119
2018-07-27T15:16:26.746Z,119
2018-07-27T15:17:31.889Z,119
2018-07-27T15:18:37.298Z,119
2018-07-27T15:19:42.782Z,79
2018-07-27T15:20:48.414Z,103
2018-07-27T15:21:53.920Z,64
2018-07-27T15:22:58.814Z,64
2018-07-27T15:24:03.969Z,112
2018-07-27T15:25:09.383Z,72
2018-07-27T15:26:13.999Z,110
2018-07-27T15:27:18.858Z,110
2018-07-27T15:28:23.971Z,110
2018-07-27T15:29:29.125Z,110
2018-07-27T15:30:34.957Z,127
2018-07-27T15:31:40.558Z,127
2018-07-27T15:32:45.848Z,127
2018-07-27T15:33:51.380Z,127
2018-07-27T15:34:56.828Z,143
2018-07-27T15:36:02.060Z,117
2018-07-27T15:37:07.453Z,117
2018-07-27T15:38:12.753Z,117
2018-07-27T15:39:18.189Z,134
2018-07-27T15:40:23.887Z,134
2018-07-27T15:41:28.777Z,134